Pagina principale
METAR-TAF:

METAR-TAF

Aeroporti :

Santa Caterina, Egitto

latitudine: 28-41-07N, longitudine: 034-03-45E, altezza: 1331 m

METAR: mancante

Ora: 15:14 (13:14 UTC)

Previsione

Il bollettino è stato emesso 2 ore e 14 minuti fa, alle 11:00 UTC
Previsione valida dal 14 alle 12 UTC al 15 alle 18 UTC
Vento 12 kt da nord/nord-ovest
Visibilità 10 km o più
Nubi sparse ad un'altezza di 2000 ft
Temporaneamente
dal 14 alle 18 UTC al 15 alle 06 UTC
Visibilità: 6000 m
Nuvoloso ad un'altezza di 3000 ft
pioggia
Temporaneamente
dal 14 alle 23 UTC al 15 alle 03 UTC
Visibilità: 4000 m
Poco nuvoloso ad un'altezza di 1700 ft, Cumulonembo.
rovesci di pioggia

TAF: HESC 141100Z 1412/1518 33012KT 9999 SCT020 TEMPO 1418/1506 6000 RA BKN030 TEMPO 1423/1503 4000 SHRA FEW017CB

Osservazioni e previsioni meteorologiche di più di 4000 aeroporti (messaggi METAR e TAF).

Le stazioni disponibili sono rappresentate dai dischi gialli e rossi sulla carta.

Puntare il mouse per vedere il nome della stazione.

Clicca sopra per visualizzare le osservazioni e previsioni meteorologiche.

Per cambiare la mappa : fare clic sui pulsanti verdi con una croce nera per ingrandire, il pulsante verde con un trattino per diminuire, o sulla freccia verde per le mappe adiacenti.


METAR-TAF: